Time;durP1;ratioP1;P1;durP2;ratioP2;P2;SDS_P1;SDS_P2;PMS_P1;PMS_P2;Temp;Humidity;BMP_temperature;BMP_pressure;BME280_temperature;BME280_humidity;BME280_pressure;Samples;Min_cycle;Max_cycle;Signal;HPM_P1;HPM_P2
2024/04/20 00:00:59;;;;;;;0.00;0.00;;;7.00;80.50;;;;;;5531681;25;19993;-69
2024/04/20 00:03:24;;;;;;;0.20;0.20;;;6.90;80.40;;;;;;5532963;25;20198;-69
2024/04/20 00:05:50;;;;;;;0.00;0.00;;;6.90;80.60;;;;;;5534670;25;19995;-67
2024/04/20 00:08:16;;;;;;;0.10;0.10;;;6.90;81.20;;;;;;5536694;25;20206;-67
2024/04/20 00:10:41;;;;;;;0.00;0.00;;;6.90;82.20;;;;;;5535249;25;20445;-67
2024/04/20 00:13:07;;;;;;;0.32;0.25;;;6.80;82.40;;;;;;5535587;25;19986;-67
2024/04/20 00:15:36;;;;;;;1.08;0.32;;;6.90;81.60;;;;;;5492795;25;20044;-69
2024/04/20 00:18:02;;;;;;;0.05;0.05;;;7.00;79.10;;;;;;5535013;25;20035;-70
2024/04/20 00:20:32;;;;;;;0.57;0.57;;;6.90;80.60;;;;;;5550018;25;20120;-71
2024/04/20 00:22:59;;;;;;;0.00;0.00;;;7.00;80.60;;;;;;5535454;25;20061;-70
2024/04/20 00:25:25;;;;;;;0.13;0.13;;;7.10;79.70;;;;;;5535457;25;20035;-71
2024/04/20 00:27:51;;;;;;;0.20;0.20;;;6.30;77.80;;;;;;5535307;25;19990;-71
2024/04/20 00:30:17;;;;;;;0.10;0.10;;;7.20;78.60;;;;;;5504092;26;20130;-70
2024/04/20 00:32:45;;;;;;;0.00;0.00;;;7.20;79.70;;;;;;5535576;25;20000;-69
2024/04/20 00:35:11;;;;;;;0.00;0.00;;;7.30;78.90;;;;;;5539050;25;19994;-69
2024/04/20 00:37:38;;;;;;;0.00;0.00;;;7.20;79.20;;;;;;5536641;25;20224;-69
2024/04/20 00:40:04;;;;;;;0.10;0.10;;;7.20;79.40;;;;;;5535549;25;19998;-69
2024/04/20 00:42:29;;;;;;;0.00;0.00;;;7.20;79.10;;;;;;5535687;25;19993;-69
2024/04/20 00:44:55;;;;;;;0.15;0.15;;;7.20;79.60;;;;;;5535208;25;20005;-69
2024/04/20 00:47:21;;;;;;;0.05;0.05;;;7.40;80.90;;;;;;5535206;25;20030;-68
2024/04/20 00:49:47;;;;;;;0.03;0.03;;;7.50;80.80;;;;;;5564141;25;19996;-69
2024/04/20 00:52:13;;;;;;;0.17;0.15;;;7.30;81.10;;;;;;5534972;25;19993;-69
2024/04/20 00:54:41;;;;;;;0.00;0.00;;;7.30;81.40;;;;;;5535953;25;19998;-68
2024/04/20 00:57:08;;;;;;;0.00;0.00;;;7.30;79.60;;;;;;5535084;25;20049;-68
2024/04/20 00:59:35;;;;;;;0.00;0.00;;;7.30;80.40;;;;;;5534941;25;20144;-68
2024/04/20 01:02:02;;;;;;;0.00;0.00;;;7.20;80.50;;;;;;5534807;25;20337;-69
2024/04/20 01:04:28;;;;;;;2.45;0.28;;;7.30;77.60;;;;;;5555480;25;19993;-69
2024/04/20 01:06:53;;;;;;;0.10;0.10;;;7.30;76.70;;;;;;5545773;25;20323;-68
2024/04/20 01:09:19;;;;;;;0.00;0.00;;;7.40;76.80;;;;;;5534951;25;19989;-68
2024/04/20 01:11:45;;;;;;;0.00;0.00;;;7.40;77.50;;;;;;5536095;25;20013;-69
2024/04/20 01:14:11;;;;;;;0.30;0.30;;;7.40;77.70;;;;;;5535112;25;20205;-68
2024/04/20 01:16:36;;;;;;;0.17;0.17;;;7.40;76.10;;;;;;5535150;25;20005;-68
2024/04/20 01:19:08;;;;;;;0.10;0.10;;;7.40;75.00;;;;;;5533992;25;20086;-68
2024/04/20 01:21:33;;;;;;;0.00;0.00;;;7.40;76.00;;;;;;5534843;25;20046;-68
2024/04/20 01:24:03;;;;;;;0.20;0.20;;;7.50;76.30;;;;;;5472988;25;19997;-67
2024/04/20 01:26:29;;;;;;;0.00;0.00;;;7.50;76.00;;;;;;5534457;25;19990;-67
2024/04/20 01:28:54;;;;;;;0.05;0.05;;;7.50;75.40;;;;;;5520582;25;20130;-66
2024/04/20 01:31:20;;;;;;;0.00;0.00;;;7.60;77.60;;;;;;5487631;26;20001;-67
2024/04/20 01:33:46;;;;;;;0.75;0.60;;;7.50;76.20;;;;;;5534130;25;19988;-67
2024/04/20 01:36:12;;;;;;;0.10;0.10;;;7.70;76.00;;;;;;5535659;25;19996;-67
2024/04/20 01:38:38;;;;;;;1.35;0.17;;;7.60;74.90;;;;;;5503624;25;19997;-68
2024/04/20 01:41:04;;;;;;;0.10;0.10;;;7.70;72.20;;;;;;5518179;25;20058;-67
2024/04/20 01:43:29;;;;;;;0.00;0.00;;;7.80;75.90;;;;;;5534635;25;20000;-67
2024/04/20 01:45:55;;;;;;;0.98;0.43;;;7.70;73.90;;;;;;5535326;25;19993;-67
2024/04/20 01:48:21;;;;;;;0.32;0.32;;;7.80;73.30;;;;;;5534533;25;20027;-66
2024/04/20 01:50:46;;;;;;;0.00;0.00;;;7.80;73.70;;;;;;5534246;25;20199;-67
2024/04/20 01:53:12;;;;;;;0.00;0.00;;;7.70;74.10;;;;;;5534307;25;19985;-67
2024/04/20 01:55:38;;;;;;;0.00;0.00;;;7.70;74.00;;;;;;5534016;25;20328;-67
2024/04/20 01:58:03;;;;;;;0.10;0.10;;;7.70;73.50;;;;;;5534069;25;19993;-66
2024/04/20 02:00:29;;;;;;;0.22;0.22;;;7.70;73.80;;;;;;5533966;25;20202;-67
2024/04/20 02:02:55;;;;;;;0.00;0.00;;;7.70;74.50;;;;;;5535123;25;19989;-67
2024/04/20 02:05:21;;;;;;;0.10;0.10;;;7.70;74.30;;;;;;5502447;26;19981;-67
2024/04/20 02:07:47;;;;;;;0.22;0.22;;;7.80;74.30;;;;;;5547616;25;20034;-67
2024/04/20 02:10:13;;;;;;;0.00;0.00;;;7.70;73.70;;;;;;5534213;25;20005;-67
2024/04/20 02:12:39;;;;;;;0.10;0.10;;;7.70;73.70;;;;;;5533938;25;19986;-67
2024/04/20 02:15:05;;;;;;;0.00;0.00;;;7.70;73.70;;;;;;5534018;25;19985;-67
2024/04/20 02:17:31;;;;;;;4.05;0.20;;;7.70;97.00;;;;;;5534135;25;19985;-67
2024/04/20 02:19:57;;;;;;;0.00;0.00;;;7.70;73.00;;;;;;5537245;25;20044;-67
2024/04/20 02:22:23;;;;;;;0.10;0.10;;;7.70;98.40;;;;;;5533876;25;20046;-67
2024/04/20 02:24:48;;;;;;;0.00;0.00;;;7.70;72.50;;;;;;5533546;25;20003;-67
2024/04/20 02:27:14;;;;;;;0.00;0.00;;;7.40;72.20;;;;;;5533480;25;19997;-68
2024/04/20 02:29:40;;;;;;;0.00;0.00;;;7.50;71.80;;;;;;5533413;25;20020;-68
2024/04/20 02:32:05;;;;;;;0.00;0.00;;;7.70;71.70;;;;;;5533587;25;20214;-67
2024/04/20 02:34:31;;;;;;;0.00;0.00;;;7.70;71.70;;;;;;5537054;25;19992;-67
2024/04/20 02:37:09;;;;;;;0.20;0.20;;;7.70;71.20;;;;;;5538292;25;20033;-67
2024/04/20 02:39:36;;;;;;;0.00;0.00;;;7.70;71.80;;;;;;5533327;25;19994;-67
2024/04/20 02:42:02;;;;;;;0.00;0.00;;;7.80;71.30;;;;;;5501492;25;20013;-67
2024/04/20 02:44:29;;;;;;;0.00;0.00;;;7.70;71.20;;;;;;5537559;25;20001;-67
2024/04/20 02:46:55;;;;;;;0.00;0.00;;;7.70;71.70;;;;;;5499379;25;19986;-67
2024/04/20 02:49:21;;;;;;;0.00;0.00;;;7.70;71.00;;;;;;5533237;25;20046;-68
2024/04/20 02:51:46;;;;;;;0.00;0.00;;;7.60;71.20;;;;;;5532128;25;20195;-68
2024/04/20 02:54:14;;;;;;;0.00;0.00;;;7.60;71.20;;;;;;5482054;26;19997;-68
2024/04/20 02:56:40;;;;;;;0.10;0.10;;;7.60;71.20;;;;;;5527880;25;19998;-68
2024/04/20 02:59:05;;;;;;;0.00;0.00;;;7.70;71.20;;;;;;5544342;25;19992;-68
2024/04/20 03:01:31;;;;;;;0.00;0.00;;;7.70;71.40;;;;;;5541558;25;19985;-68
2024/04/20 03:03:57;;;;;;;0.10;0.10;;;7.50;70.90;;;;;;5533330;25;19993;-68
2024/04/20 03:06:23;;;;;;;0.00;0.00;;;7.60;70.80;;;;;;5533375;25;19985;-67
2024/04/20 03:08:49;;;;;;;0.32;0.32;;;7.60;71.30;;;;;;5533374;25;20042;-66
2024/04/20 03:11:15;;;;;;;0.20;0.13;;;7.90;71.70;;;;;;5534680;25;19997;-66
2024/04/20 03:13:41;;;;;;;0.10;0.10;;;7.60;70.70;;;;;;5471136;25;20266;-68
2024/04/20 03:16:07;;;;;;;0.20;0.20;;;7.50;71.00;;;;;;5533319;25;20003;-67
2024/04/20 03:18:33;;;;;;;0.00;0.00;;;7.50;92.40;;;;;;5532868;25;19990;-68
2024/04/20 03:20:59;;;;;;;0.00;0.00;;;7.50;92.40;;;;;;5532696;25;19997;-68
2024/04/20 03:23:28;;;;;;;0.00;0.00;;;7.50;92.30;;;;;;5474017;26;20267;-68
2024/04/20 03:25:53;;;;;;;0.00;0.00;;;7.50;92.30;;;;;;5529860;25;19989;-70
2024/04/20 03:28:19;;;;;;;0.75;0.20;;;7.40;92.40;;;;;;5541081;25;20037;-67
2024/04/20 03:30:45;;;;;;;0.03;0.03;;;7.40;92.50;;;;;;5504138;25;20079;-67
2024/04/20 03:33:10;;;;;;;0.25;0.20;;;7.40;92.30;;;;;;5531313;25;19985;-66
2024/04/20 03:35:36;;;;;;;0.10;0.10;;;7.40;92.20;;;;;;5546773;25;20057;-67
2024/04/20 03:38:02;;;;;;;0.00;0.00;;;7.50;92.30;;;;;;5547036;25;19997;-67
2024/04/20 03:40:28;;;;;;;0.35;0.32;;;7.50;76.90;;;;;;5532315;25;19989;-70
2024/04/20 03:42:53;;;;;;;0.55;0.17;;;7.50;92.20;;;;;;5536044;25;20387;-69
2024/04/20 03:45:19;;;;;;;0.28;0.25;;;;;;;;;;5537572;25;19981;-69
2024/04/20 03:47:45;;;;;;;0.20;0.20;;;7.10;92.30;;;;;;5537325;25;19985;-69
2024/04/20 03:50:11;;;;;;;0.30;0.30;;;7.30;92.40;;;;;;5549556;25;19999;-69
2024/04/20 03:52:36;;;;;;;0.00;0.00;;;7.60;92.20;;;;;;5536040;25;19997;-69
2024/04/20 03:55:02;;;;;;;0.10;0.10;;;7.30;92.20;;;;;;5539789;25;19996;-69
2024/04/20 03:57:28;;;;;;;0.00;0.00;;;7.30;92.30;;;;;;5536148;25;19988;-69
2024/04/20 03:59:56;;;;;;;0.00;0.00;;;7.50;92.20;;;;;;5535775;25;20018;-69
2024/04/20 04:02:26;;;;;;;0.88;0.25;;;7.30;92.10;;;;;;5536979;25;19989;-69
2024/04/20 04:04:52;;;;;;;0.00;0.00;;;;;;;;;;5547409;25;20001;-69
2024/04/20 04:07:18;;;;;;;0.20;0.20;;;7.30;92.20;;;;;;5549347;25;20000;-69
2024/04/20 04:09:44;;;;;;;0.05;0.05;;;7.30;92.20;;;;;;5539761;25;19989;-69
2024/04/20 04:12:11;;;;;;;0.03;0.03;;;7.10;92.00;;;;;;5503979;26;20033;-69
2024/04/20 04:14:37;;;;;;;0.17;0.17;;;7.20;91.90;;;;;;5535668;25;19997;-67
2024/04/20 04:17:03;;;;;;;0.10;0.10;;;7.40;91.90;;;;;;5535373;25;20000;-69
2024/04/20 04:19:29;;;;;;;0.00;0.00;;;7.50;91.90;;;;;;5536648;25;20013;-69
2024/04/20 04:21:54;;;;;;;0.10;0.10;;;7.30;91.90;;;;;;5535280;25;19990;-69
2024/04/20 04:24:20;;;;;;;0.00;0.00;;;7.30;91.90;;;;;;5535434;25;20034;-70
2024/04/20 04:26:46;;;;;;;0.00;0.00;;;7.30;91.90;;;;;;5535139;25;19989;-69
2024/04/20 04:29:12;;;;;;;0.00;0.00;;;7.70;91.90;;;;;;5535572;25;20186;-70
2024/04/20 04:31:39;;;;;;;0.10;0.10;;;7.20;91.80;;;;;;5535596;25;20098;-70
2024/04/20 04:34:04;;;;;;;0.00;0.00;;;7.30;92.00;;;;;;5535578;25;19993;-70
2024/04/20 04:36:30;;;;;;;0.00;0.00;;;7.30;92.10;;;;;;5536713;25;19997;-69
2024/04/20 04:38:56;;;;;;;0.00;0.00;;;7.30;92.10;;;;;;5507164;25;19997;-69
2024/04/20 04:41:21;;;;;;;0.00;0.00;;;7.00;92.40;;;;;;5535572;25;20049;-70
2024/04/20 04:43:47;;;;;;;1.35;0.57;;;7.50;85.70;;;;;;5535174;25;20029;-69
2024/04/20 04:46:13;;;;;;;0.15;0.15;;;7.00;70.80;;;;;;5535143;25;19990;-70
2024/04/20 04:48:39;;;;;;;0.03;0.03;;;;;;;;;;5534941;25;19993;-70
2024/04/20 04:51:04;;;;;;;0.05;0.05;;;7.00;93.20;;;;;;5535224;25;20194;-69
2024/04/20 04:53:30;;;;;;;0.28;0.20;;;6.70;94.20;;;;;;5534820;25;20003;-69
2024/04/20 04:55:56;;;;;;;0.45;0.20;;;6.90;94.50;;;;;;5534787;25;19993;-71
2024/04/20 04:58:21;;;;;;;1.80;0.55;;;6.70;94.40;;;;;;5534850;25;20007;-70
2024/04/20 05:00:47;;;;;;;0.10;0.10;;;6.80;94.50;;;;;;5534620;25;20005;-70
2024/04/20 05:03:13;;;;;;;0.00;0.00;;;6.80;94.60;;;;;;5534849;25;20196;-70
2024/04/20 05:05:45;;;;;;;0.00;0.00;;;6.80;94.70;;;;;;5534420;25;19989;-70
2024/04/20 05:08:10;;;;;;;0.30;0.20;;;6.70;95.10;;;;;;5503054;26;20001;-70
2024/04/20 05:10:37;;;;;;;0.00;0.00;;;6.70;95.10;;;;;;5535847;25;19986;-69
2024/04/20 05:13:03;;;;;;;0.05;0.05;;;6.80;95.20;;;;;;5534437;25;19994;-70
2024/04/20 05:15:29;;;;;;;0.10;0.10;;;6.70;95.20;;;;;;5534440;25;19985;-70
2024/04/20 05:17:55;;;;;;;0.00;0.00;;;6.40;95.10;;;;;;5534273;25;20004;-70
2024/04/20 05:20:21;;;;;;;0.03;0.03;;;6.70;95.40;;;;;;5534696;25;19993;-70
2024/04/20 05:22:46;;;;;;;1.70;0.63;;;6.80;95.40;;;;;;5534408;25;20013;-70
2024/04/20 05:25:12;;;;;;;0.00;0.00;;;7.00;95.40;;;;;;5552043;25;20260;-69
2024/04/20 05:27:38;;;;;;;0.03;0.03;;;7.00;95.00;;;;;;5536643;25;20046;-69
2024/04/20 05:30:05;;;;;;;0.00;0.00;;;6.80;95.10;;;;;;5519300;25;19986;-69
2024/04/20 05:32:30;;;;;;;0.00;0.00;;;7.10;95.40;;;;;;5503003;26;20041;-69
2024/04/20 05:34:56;;;;;;;0.28;0.10;;;7.00;75.60;;;;;;5534528;25;20005;-68
2024/04/20 05:37:22;;;;;;;0.03;0.03;;;7.30;95.10;;;;;;5534803;25;20117;-69
2024/04/20 05:39:47;;;;;;;0.00;0.00;;;7.60;92.80;;;;;;5480395;25;20118;-69
2024/04/20 05:42:13;;;;;;;0.10;0.10;;;7.20;75.80;;;;;;5534733;25;20082;-69
2024/04/20 05:44:39;;;;;;;0.50;0.50;;;7.50;94.50;;;;;;5504141;25;19993;-69
2024/04/20 05:47:05;;;;;;;0.10;0.10;;;7.70;94.50;;;;;;5534097;25;20198;-69
2024/04/20 05:49:33;;;;;;;0.20;0.20;;;7.80;94.80;;;;;;5534501;25;20214;-70
2024/04/20 05:51:59;;;;;;;0.00;0.00;;;7.80;95.20;;;;;;5533977;25;20005;-71
2024/04/20 05:54:28;;;;;;;0.00;0.00;;;8.00;94.70;;;;;;5534173;25;19989;-69
2024/04/20 05:56:53;;;;;;;0.00;0.00;;;8.00;95.40;;;;;;5533858;25;20045;-70
2024/04/20 05:59:19;;;;;;;0.10;0.10;;;7.90;95.60;;;;;;5534113;25;19993;-69
2024/04/20 06:01:45;;;;;;;0.10;0.10;;;7.90;95.50;;;;;;5537704;25;20000;-69
2024/04/20 06:04:11;;;;;;;0.03;0.03;;;7.80;95.60;;;;;;5533282;25;20186;-69
2024/04/20 06:06:36;;;;;;;0.10;0.10;;;7.90;95.70;;;;;;5549302;25;20072;-70
2024/04/20 06:09:02;;;;;;;0.35;0.30;;;7.80;95.90;;;;;;5502093;25;20000;-70
2024/04/20 06:11:28;;;;;;;0.00;0.00;;;7.90;96.00;;;;;;5533855;25;19989;-70
2024/04/20 06:13:53;;;;;;;0.15;0.15;;;8.10;96.40;;;;;;5533811;25;19999;-70
2024/04/20 06:16:19;;;;;;;0.20;0.20;;;7.90;78.50;;;;;;5534044;25;20000;-68
2024/04/20 06:18:45;;;;;;;0.45;0.35;;;8.20;96.70;;;;;;5537341;25;19989;-66
2024/04/20 06:21:11;;;;;;;0.08;0.00;;;5.90;78.10;;;;;;5533819;25;20065;-67
2024/04/20 06:23:36;;;;;;;0.00;0.00;;;8.10;79.40;;;;;;5533487;25;20003;-67
2024/04/20 06:26:02;;;;;;;0.13;0.13;;;8.10;79.20;;;;;;5533335;25;19993;-66
2024/04/20 06:28:28;;;;;;;0.20;0.20;;;8.00;79.50;;;;;;5533648;25;19990;-65
2024/04/20 06:30:55;;;;;;;0.00;0.00;;;8.00;80.00;;;;;;5533088;25;19997;-66
2024/04/20 06:33:21;;;;;;;0.25;0.20;;;7.90;89.30;;;;;;5534277;25;19997;-66
2024/04/20 06:35:47;;;;;;;0.00;0.00;;;10.10;81.40;;;;;;5533392;25;19996;-66
2024/04/20 06:38:13;;;;;;;0.10;0.10;;;8.10;98.10;;;;;;5533466;25;19997;-66
2024/04/20 06:40:39;;;;;;;0.10;0.10;;;8.10;80.50;;;;;;5539171;25;20000;-66
2024/04/20 06:43:04;;;;;;;0.00;0.00;;;8.20;98.10;;;;;;5533521;25;20177;-66
2024/04/20 06:45:30;;;;;;;0.00;0.00;;;8.20;80.40;;;;;;5533553;25;19989;-66
2024/04/20 06:47:57;;;;;;;0.45;0.25;;;8.30;80.40;;;;;;5532953;25;19994;-66
2024/04/20 06:50:23;;;;;;;0.13;0.13;;;8.30;80.70;;;;;;5534274;25;20175;-66
2024/04/20 06:52:49;;;;;;;0.00;0.00;;;8.50;80.60;;;;;;5503856;25;20300;-65
2024/04/20 06:55:14;;;;;;;0.40;0.20;;;8.60;80.70;;;;;;5513860;26;19993;-66
2024/04/20 06:57:40;;;;;;;0.00;0.00;;;8.70;80.70;;;;;;5528669;25;20577;-66
2024/04/20 07:00:07;;;;;;;0.00;0.00;;;8.80;80.60;;;;;;5533000;25;19985;-66
2024/04/20 07:02:33;;;;;;;0.00;0.00;;;8.80;80.70;;;;;;5533120;25;20013;-66
2024/04/20 07:04:59;;;;;;;0.00;0.00;;;8.90;80.40;;;;;;5540936;25;19998;-65
2024/04/20 07:07:25;;;;;;;0.13;0.03;;;8.90;80.70;;;;;;5516712;25;20002;-66
2024/04/20 07:09:50;;;;;;;0.00;0.00;;;9.00;80.30;;;;;;5548976;25;20049;-65
2024/04/20 07:12:17;;;;;;;0.10;0.10;;;9.20;80.30;;;;;;5532757;25;19989;-66
2024/04/20 07:14:43;;;;;;;0.00;0.00;;;9.50;99.90;;;;;;5532598;25;19981;-66
2024/04/20 07:17:10;;;;;;;0.10;0.10;;;9.50;79.30;;;;;;5503840;26;19988;-66
2024/04/20 07:19:36;;;;;;;0.10;0.10;;;9.70;78.60;;;;;;5518475;26;19993;-66
2024/04/20 07:22:02;;;;;;;0.32;0.22;;;9.80;79.00;;;;;;5536323;25;20206;-67
2024/04/20 07:24:28;;;;;;;0.00;0.00;;;9.80;79.00;;;;;;5557341;25;19986;-66
2024/04/20 07:26:54;;;;;;;0.50;0.22;;;9.80;79.20;;;;;;5536138;25;20045;-66
2024/04/20 07:29:19;;;;;;;0.00;0.00;;;9.80;79.90;;;;;;5536187;25;19990;-66
2024/04/20 07:31:45;;;;;;;0.00;0.00;;;9.70;80.30;;;;;;5534982;25;20197;-66
2024/04/20 07:34:11;;;;;;;0.00;0.00;;;9.70;80.60;;;;;;5536404;25;19996;-67
2024/04/20 07:36:37;;;;;;;0.00;0.00;;;9.70;81.00;;;;;;5535984;25;19989;-66
2024/04/20 07:39:03;;;;;;;0.00;0.00;;;9.70;81.50;;;;;;5537638;25;20221;-66
2024/04/20 07:41:29;;;;;;;0.00;0.00;;;9.60;81.50;;;;;;5535027;25;20212;-66
2024/04/20 07:43:56;;;;;;;0.00;0.00;;;9.60;81.90;;;;;;5534540;25;20004;-66
2024/04/20 07:46:21;;;;;;;0.10;0.10;;;9.70;96.90;;;;;;5535935;25;20198;-66
2024/04/20 07:48:48;;;;;;;0.00;0.00;;;10.00;96.40;;;;;;5535727;25;20030;-66
2024/04/20 07:51:15;;;;;;;0.77;0.15;;;9.80;96.50;;;;;;5536145;25;19997;-66
2024/04/20 07:53:40;;;;;;;0.00;0.00;;;9.70;80.80;;;;;;5535843;25;19989;-66
2024/04/20 07:56:06;;;;;;;0.00;0.00;;;9.80;96.20;;;;;;5504189;26;20004;-66
2024/04/20 07:58:33;;;;;;;0.00;0.00;;;9.80;80.60;;;;;;5537099;25;20008;-66
2024/04/20 08:00:59;;;;;;;0.00;0.00;;;10.20;96.40;;;;;;5535722;25;20086;-66
2024/04/20 08:03:25;;;;;;;0.10;0.10;;;10.00;80.10;;;;;;5540094;25;20457;-66
2024/04/20 08:05:51;;;;;;;0.00;0.00;;;10.00;96.30;;;;;;5500671;25;20248;-66
2024/04/20 08:08:17;;;;;;;0.00;0.00;;;9.80;80.50;;;;;;5551476;25;20232;-66
2024/04/20 08:10:43;;;;;;;0.00;0.00;;;9.50;96.40;;;;;;5546030;25;20001;-66
2024/04/20 08:13:08;;;;;;;0.00;0.00;;;9.70;81.30;;;;;;5535588;25;20005;-66
2024/04/20 08:15:34;;;;;;;0.00;0.00;;;9.80;96.80;;;;;;5552214;25;20203;-66
2024/04/20 08:18:00;;;;;;;0.00;0.00;;;9.70;81.20;;;;;;5535459;25;20051;-66
2024/04/20 08:20:27;;;;;;;0.00;0.00;;;9.50;97.10;;;;;;5535620;25;20001;-66
2024/04/20 08:22:52;;;;;;;0.00;0.00;;;9.70;96.90;;;;;;5535408;25;19989;-66
2024/04/20 08:25:18;;;;;;;0.00;0.00;;;9.70;96.60;;;;;;5535552;25;20277;-66
2024/04/20 08:27:44;;;;;;;0.00;0.00;;;9.50;96.90;;;;;;5534943;25;20053;-66
2024/04/20 08:30:10;;;;;;;0.00;0.00;;;9.60;97.00;;;;;;5535310;25;20045;-66
2024/04/20 08:32:36;;;;;;;0.03;0.03;;;9.70;97.20;;;;;;5503516;25;20063;-66
2024/04/20 08:35:02;;;;;;;0.10;0.10;;;9.60;96.60;;;;;;5535269;25;19997;-66
2024/04/20 08:37:33;;;;;;;0.00;0.00;;;9.70;81.40;;;;;;5535265;25;19997;-66
2024/04/20 08:39:58;;;;;;;0.10;0.10;;;9.80;81.10;;;;;;5538966;25;19986;-66
2024/04/20 08:42:24;;;;;;;0.10;0.10;;;;;;;;;;5535233;25;20003;-66
2024/04/20 08:44:50;;;;;;;0.10;0.10;;;;;;;;;;5534890;25;20167;-66
2024/04/20 08:47:18;;;;;;;0.00;0.00;;;11.20;74.60;;;;;;5535083;25;20014;-66
2024/04/20 08:49:45;;;;;;;0.00;0.00;;;11.10;74.90;;;;;;5536052;25;19985;-66
2024/04/20 08:52:11;;;;;;;0.00;0.00;;;;;;;;;;5535147;25;20558;-66
2024/04/20 08:54:38;;;;;;;0.00;0.00;;;11.20;79.70;;;;;;5534950;25;20095;-66
2024/04/20 08:57:07;;;;;;;0.00;0.00;;;11.20;85.70;;;;;;5550297;25;20066;-66
2024/04/20 08:59:34;;;;;;;;;;;11.00;75.70;;;;;;5536939;25;20005;-67
2024/04/20 09:02:03;;;;;;;0.00;0.00;;;11.10;78.10;;;;;;5534771;25;19930;-66
2024/04/20 09:04:30;;;;;;;0.00;0.00;;;10.80;76.60;;;;;;5534731;25;20414;-66
2024/04/20 09:06:57;;;;;;;0.20;0.20;;;;;;;;;;5535634;25;19997;-66
2024/04/20 09:09:23;;;;;;;0.10;0.10;;;;;;;;;;5534667;25;19985;-67
2024/04/20 09:11:49;;;;;;;0.05;0.05;;;;;;;;;;5534487;25;19988;-66
2024/04/20 09:14:16;;;;;;;0.10;0.10;;;11.90;90.90;;;;;;5534657;25;19985;-67
2024/04/20 09:16:42;;;;;;;0.10;0.10;;;12.00;73.80;;;;;;5534488;25;19985;-67
2024/04/20 09:19:07;;;;;;;0.10;0.10;;;12.80;70.40;;;;;;5534546;25;19992;-66
2024/04/20 09:21:33;;;;;;;0.10;0.10;;;13.10;69.80;;;;;;5534657;25;19989;-66
2024/04/20 09:24:04;;;;;;;0.03;0.03;;;13.40;68.90;;;;;;5535688;25;20029;-67
2024/04/20 09:26:30;;;;;;;0.00;0.00;;;13.00;69.10;;;;;;5534307;25;19990;-66
2024/04/20 09:28:59;;;;;;;0.13;0.10;;;12.50;70.50;;;;;;5534200;25;20001;-66
2024/04/20 09:31:26;;;;;;;0.10;0.10;;;11.60;95.80;;;;;;5546116;25;20188;-66
2024/04/20 09:33:52;;;;;;;0.00;0.00;;;11.60;74.30;;;;;;5537364;25;19999;-66
2024/04/20 09:36:18;;;;;;;0.00;0.00;;;11.30;75.10;;;;;;5502589;26;20041;-67
2024/04/20 09:38:43;;;;;;;0.00;0.00;;;10.80;75.60;;;;;;5532949;25;20001;-66
2024/04/20 09:41:14;;;;;;;0.10;0.10;;;10.20;77.60;;;;;;5535627;25;19986;-66
2024/04/20 09:43:45;;;;;;;0.00;0.00;;;9.80;80.20;;;;;;5534052;25;20022;-66
2024/04/20 09:46:12;;;;;;;0.00;0.00;;;9.40;82.40;;;;;;5534203;25;20001;-66
2024/04/20 09:48:38;;;;;;;0.00;0.00;;;9.30;87.10;;;;;;5535196;25;19985;-66
2024/04/20 09:51:23;;;;;;;0.10;0.10;;;9.30;86.10;;;;;;5466567;26;19986;-66
2024/04/20 09:53:56;;;;;;;0.00;0.00;;;9.40;85.60;;;;;;5530697;25;20219;-66
2024/04/20 09:56:40;;;;;;;0.10;0.10;;;9.60;84.20;;;;;;5458198;26;19995;-66
2024/04/20 09:59:07;;;;;;;0.00;0.00;;;9.80;83.10;;;;;;5459543;26;20036;-66
2024/04/20 10:01:34;;;;;;;0.00;0.00;;;9.90;81.70;;;;;;5458365;26;19987;-66
2024/04/20 10:04:02;;;;;;;0.00;0.00;;;10.10;81.10;;;;;;5458167;26;19990;-67
2024/04/20 10:06:28;;;;;;;0.00;0.00;;;10.30;81.20;;;;;;5455926;26;20230;-66
2024/04/20 10:08:54;;;;;;;0.08;0.08;;;10.40;80.50;;;;;;5477359;26;20033;-67
2024/04/20 10:11:22;;;;;;;0.03;0.03;;;10.30;80.40;;;;;;5468462;26;20260;-65
2024/04/20 10:13:52;;;;;;;0.10;0.10;;;10.30;81.30;;;;;;5458233;26;20057;-66
2024/04/20 10:16:19;;;;;;;0.08;0.08;;;10.30;82.30;;;;;;5459522;26;19991;-66
2024/04/20 10:18:46;;;;;;;0.00;0.00;;;10.30;82.60;;;;;;5457961;26;20104;-66
2024/04/20 10:21:15;;;;;;;0.00;0.00;;;10.30;83.10;;;;;;5458330;26;19991;-66
2024/04/20 10:23:43;;;;;;;0.10;0.10;;;10.30;99.60;;;;;;5457596;26;19991;-68
2024/04/20 10:26:09;;;;;;;0.10;0.10;;;10.50;83.40;;;;;;5457896;26;20002;-66
2024/04/20 10:28:39;;;;;;;0.10;0.10;;;11.10;81.10;;;;;;5526595;25;20182;-66
2024/04/20 10:31:05;;;;;;;0.03;0.03;;;11.50;79.40;;;;;;5533582;25;20125;-66
2024/04/20 10:33:35;;;;;;;0.10;0.10;;;11.70;78.40;;;;;;5533922;25;20045;-66
2024/04/20 10:36:06;;;;;;;0.22;0.20;;;11.90;78.10;;;;;;5533423;25;20010;-66
2024/04/20 10:38:32;;;;;;;0.10;0.10;;;11.90;77.80;;;;;;5544997;25;20000;-66
2024/04/20 10:41:11;;;;;;;0.00;0.00;;;11.90;78.60;;;;;;5549770;25;20054;-66
2024/04/20 10:43:36;;;;;;;0.10;0.10;;;11.90;79.00;;;;;;5501623;26;20090;-66
2024/04/20 10:46:08;;;;;;;0.52;0.47;;;12.00;78.70;;;;;;5533247;25;19986;-66
2024/04/20 10:48:41;;;;;;;0.20;0.13;;;12.20;78.50;;;;;;5534516;25;19997;-66
2024/04/20 10:51:10;;;;;;;0.00;0.00;;;12.20;78.40;;;;;;5531585;25;20004;-66
2024/04/20 10:53:39;;;;;;;0.10;0.10;;;12.30;78.40;;;;;;5501647;26;20001;-66
2024/04/20 10:56:08;;;;;;;;;;;12.50;78.50;;;;;;5537837;25;20013;-66
2024/04/20 10:58:37;;;;;;;0.03;0.03;;;12.50;77.40;;;;;;5545831;25;19994;-66
2024/04/20 11:01:03;;;;;;;;;;;12.40;78.10;;;;;;5487252;25;19989;-66
2024/04/20 11:03:29;;;;;;;0.10;0.10;;;;;;;;;;5533110;25;19919;-66
2024/04/20 11:05:56;;;;;;;0.57;0.17;;;13.10;89.10;;;;;;5533888;25;19981;-66
2024/04/20 11:08:23;;;;;;;0.20;0.20;;;13.20;75.30;;;;;;5543765;25;20377;-66
2024/04/20 11:11:04;;;;;;;0.15;0.15;;;13.30;74.70;;;;;;5536788;25;20238;-66
2024/04/20 11:13:31;;;;;;;0.17;0.17;;;;;;;;;;5532997;25;20004;-66
2024/04/20 11:15:58;;;;;;;1.48;0.38;;;13.70;77.80;;;;;;5532632;25;20062;-66
2024/04/20 11:18:25;;;;;;;0.10;0.10;;;13.90;75.50;;;;;;5532608;25;19993;-66
2024/04/20 11:20:54;;;;;;;0.20;0.20;;;14.30;75.80;;;;;;5500766;25;20357;-66
2024/04/20 11:23:20;;;;;;;0.10;0.10;;;14.40;75.20;;;;;;5533844;25;20054;-66
2024/04/20 11:25:56;;;;;;;0.20;0.20;;;14.70;78.50;;;;;;5500691;25;20214;-66
2024/04/20 11:28:28;;;;;;;0.10;0.10;;;14.90;75.50;;;;;;5532596;25;20249;-67
2024/04/20 11:30:53;;;;;;;0.10;0.10;;;15.20;71.70;;;;;;5532480;25;20000;-67
2024/04/20 11:33:19;;;;;;;0.15;0.10;;;15.20;71.40;;;;;;5532401;25;19994;-66
2024/04/20 11:35:52;;;;;;;0.10;0.10;;;15.10;70.80;;;;;;5532376;25;20049;-67
2024/04/20 11:38:19;;;;;;;0.10;0.10;;;15.30;69.30;;;;;;5532151;25;19998;-67
2024/04/20 11:40:46;;;;;;;0.10;0.10;;;15.10;69.60;;;;;;5480816;25;20079;-67
2024/04/20 11:43:17;;;;;;;0.00;0.00;;;14.80;70.20;;;;;;5532160;25;20005;-67
2024/04/20 11:45:49;;;;;;;0.10;0.10;;;14.50;71.50;;;;;;5531992;25;19986;-67
2024/04/20 11:48:29;;;;;;;0.15;0.15;;;14.10;72.80;;;;;;5532193;25;20062;-66
2024/04/20 11:51:07;;;;;;;0.15;0.15;;;13.70;73.90;;;;;;5532103;25;19996;-66
2024/04/20 11:56:19;;;;;;;0.00;0.00;;;12.60;76.70;;;;;;5532377;25;20000;-66
2024/04/20 11:58:49;;;;;;;0.10;0.10;;;12.30;78.10;;;;;;5536413;25;20001;-66
2024/04/20 12:01:15;;;;;;;0.10;0.10;;;12.20;79.10;;;;;;5532173;25;20017;-66
2024/04/20 12:03:42;;;;;;;0.10;0.10;;;12.30;79.00;;;;;;5503884;25;20001;-66
2024/04/20 12:06:11;;;;;;;0.05;0.05;;;12.50;78.30;;;;;;5504256;26;20123;-66
2024/04/20 12:08:36;;;;;;;0.00;0.00;;;12.70;77.90;;;;;;5535902;25;20005;-66
2024/04/20 12:11:02;;;;;;;0.10;0.10;;;13.60;76.60;;;;;;5535460;25;19989;-67
2024/04/20 12:13:29;;;;;;;0.10;0.10;;;13.50;75.00;;;;;;5540718;25;20009;-67
2024/04/20 12:15:54;;;;;;;0.00;0.00;;;13.70;94.00;;;;;;5535424;25;20352;-67
2024/04/20 12:18:20;;;;;;;0.10;0.10;;;14.00;73.60;;;;;;5503706;26;20029;-66
2024/04/20 12:20:47;;;;;;;0.00;0.00;;;14.10;73.90;;;;;;5518811;25;20010;-66
2024/04/20 12:23:14;;;;;;;0.20;0.20;;;14.40;73.20;;;;;;5535495;25;20270;-66
2024/04/20 12:25:48;;;;;;;0.63;0.15;;;14.70;72.40;;;;;;5535470;25;20261;-66
2024/04/20 12:28:16;;;;;;;0.08;0.08;;;15.00;71.10;;;;;;5538713;25;20002;-66
2024/04/20 12:30:42;;;;;;;0.00;0.00;;;15.10;70.80;;;;;;5542170;25;19992;-67
2024/04/20 12:33:09;;;;;;;0.15;0.13;;;15.10;70.00;;;;;;5535030;25;20208;-67
2024/04/20 12:35:35;;;;;;;0.15;0.15;;;14.70;71.50;;;;;;5535248;25;19989;-66
2024/04/20 12:38:04;;;;;;;0.00;0.00;;;14.30;73.20;;;;;;5503921;25;19989;-66
2024/04/20 12:40:30;;;;;;;0.00;0.00;;;13.80;74.80;;;;;;5535299;25;19997;-66
2024/04/20 12:42:56;;;;;;;0.00;0.00;;;13.40;76.60;;;;;;5540354;25;19996;-66
2024/04/20 12:45:29;;;;;;;0.13;0.13;;;12.90;76.80;;;;;;5535318;25;20185;-66
2024/04/20 12:47:57;;;;;;;0.03;0.03;;;12.40;78.50;;;;;;5536055;25;20040;-66
2024/04/20 12:50:23;;;;;;;3.10;0.57;;;11.90;80.80;;;;;;5535367;25;19992;-66
2024/04/20 12:52:49;;;;;;;0.10;0.10;;;11.30;82.40;;;;;;5534840;25;20210;-65
2024/04/20 12:55:14;;;;;;;0.00;0.00;;;11.10;84.70;;;;;;5535304;25;19993;-65
2024/04/20 12:57:40;;;;;;;0.25;0.10;;;10.80;86.20;;;;;;5535156;25;19993;-65